createdAt,value
2019-02-06T00:00:26.891Z,1022.66
2019-02-06T00:01:26.248Z,1022.65
2019-02-06T00:02:26.183Z,1022.68
2019-02-06T00:04:26.288Z,1022.63
2019-02-06T00:05:26.571Z,1022.59
2019-02-06T00:06:26.303Z,1022.55
2019-02-06T00:07:26.377Z,1022.56
2019-02-06T00:08:26.363Z,1022.58
2019-02-06T00:09:26.436Z,1022.62
2019-02-06T00:10:26.423Z,1022.63
2019-02-06T00:11:26.499Z,1022.63
2019-02-06T00:12:26.896Z,1022.64
2019-02-06T00:13:26.599Z,1022.66
2019-02-06T00:14:26.542Z,1022.64
2019-02-06T00:15:26.621Z,1022.61
2019-02-06T00:16:26.631Z,1022.63
2019-02-06T00:17:26.692Z,1022.68
2019-02-06T00:18:26.664Z,1022.70
2019-02-06T00:19:27.043Z,1022.68
2019-02-06T00:20:26.718Z,1022.66
2019-02-06T00:21:26.802Z,1022.70
2019-02-06T00:22:26.786Z,1022.72
2019-02-06T00:23:26.808Z,1022.71
2019-02-06T00:24:26.890Z,1022.72
2019-02-06T00:25:27.024Z,1022.72
2019-02-06T00:27:27.232Z,1022.67
2019-02-06T00:29:27.043Z,1022.70
2019-02-06T00:30:27.075Z,1022.70
2019-02-06T00:31:27.105Z,1022.68
2019-02-06T00:32:27.084Z,1022.73
2019-02-06T00:33:27.221Z,1022.69
2019-02-06T00:34:27.442Z,1022.70
2019-02-06T00:35:27.176Z,1022.67
2019-02-06T00:36:27.254Z,1022.67
2019-02-06T00:37:27.289Z,1022.69
2019-02-06T00:38:27.311Z,1022.64
2019-02-06T00:39:27.289Z,1022.67
2019-02-06T00:40:27.377Z,1022.64
2019-02-06T00:41:27.701Z,1022.67
2019-02-06T00:42:27.387Z,1022.65
2019-02-06T00:43:27.468Z,1022.65
2019-02-06T00:44:27.444Z,1022.65
2019-02-06T00:45:27.527Z,1022.62
2019-02-06T00:46:27.560Z,1022.63
2019-02-06T00:47:27.531Z,1022.61
2019-02-06T00:48:27.915Z,1022.63
2019-02-06T00:49:27.592Z,1022.58
2019-02-06T00:50:27.620Z,1022.58
2019-02-06T00:51:27.699Z,1022.60
2019-02-06T00:52:27.730Z,1022.59
2019-02-06T00:53:27.718Z,1022.60
2019-02-06T00:54:27.746Z,1022.60
2019-02-06T00:55:28.074Z,1022.56
2019-02-06T00:56:27.849Z,1022.60
2019-02-06T00:57:27.886Z,1022.56
2019-02-06T00:58:27.868Z,1022.54
2019-02-06T00:59:27.889Z,1022.60
2019-02-06T01:01:27.955Z,1022.57
2019-02-06T01:02:28.332Z,1022.57
2019-02-06T01:03:28.062Z,1022.58
2019-02-06T01:04:28.044Z,1022.58
2019-02-06T01:06:28.153Z,1022.57
2019-02-06T01:07:28.184Z,1022.55
2019-02-06T01:08:28.264Z,1022.54
2019-02-06T01:09:28.488Z,1022.53
2019-02-06T01:10:28.226Z,1022.56
2019-02-06T01:11:28.306Z,1022.57
2019-02-06T01:12:28.337Z,1022.56
2019-02-06T01:13:28.360Z,1022.58
2019-02-06T01:14:28.350Z,1022.54
2019-02-06T01:15:28.424Z,1022.51
2019-02-06T01:16:28.698Z,1022.49
2019-02-06T01:17:28.483Z,1022.46
2019-02-06T01:18:28.463Z,1022.49
2019-02-06T01:19:28.547Z,1022.47
2019-02-06T01:20:28.573Z,1022.51
2019-02-06T01:21:28.601Z,1022.47
2019-02-06T01:22:28.635Z,1022.49
2019-02-06T01:23:28.964Z,1022.48
2019-02-06T01:24:28.644Z,1022.43
2019-02-06T01:25:28.729Z,1022.42
2019-02-06T01:26:28.710Z,1022.42
2019-02-06T01:27:28.782Z,1022.41
2019-02-06T01:28:28.762Z,1022.34
2019-02-06T01:29:28.787Z,1022.38
2019-02-06T01:30:29.175Z,1022.36
2019-02-06T01:31:28.849Z,1022.36
2019-02-06T01:32:28.940Z,1022.35
2019-02-06T01:33:28.963Z,1022.32
2019-02-06T01:34:28.949Z,1022.32
2019-02-06T01:35:28.979Z,1022.31
2019-02-06T01:36:29.061Z,1022.34
2019-02-06T01:37:29.337Z,1022.34
2019-02-06T01:38:29.108Z,1022.38
2019-02-06T01:39:29.092Z,1022.36
2019-02-06T01:40:29.127Z,1022.38
2019-02-06T01:41:29.150Z,1022.39
2019-02-06T01:42:29.177Z,1022.34
2019-02-06T01:43:29.265Z,1022.35
2019-02-06T01:44:29.537Z,1022.38
2019-02-06T01:45:29.321Z,1022.37
2019-02-06T01:46:29.363Z,1022.35
2019-02-06T01:47:29.378Z,1022.38
2019-02-06T01:48:29.359Z,1022.30
2019-02-06T01:49:29.510Z,1022.32
2019-02-06T01:51:29.557Z,1022.34
2019-02-06T01:52:29.829Z,1022.33
2019-02-06T01:53:29.555Z,1022.32
2019-02-06T01:54:29.586Z,1022.29
2019-02-06T01:55:29.620Z,1022.37
2019-02-06T01:56:29.596Z,1022.31
2019-02-06T01:57:29.631Z,1022.32
2019-02-06T01:58:29.658Z,1022.34
2019-02-06T01:59:29.987Z,1022.32
2019-02-06T02:00:29.769Z,1022.31
2019-02-06T02:01:29.750Z,1022.31
2019-02-06T02:02:29.785Z,1022.30
2019-02-06T02:03:29.859Z,1022.31
2019-02-06T02:04:29.838Z,1022.30
2019-02-06T02:05:29.921Z,1022.27
2019-02-06T02:06:30.201Z,1022.25
2019-02-06T02:07:29.978Z,1022.24
2019-02-06T02:08:29.963Z,1022.26
2019-02-06T02:09:29.985Z,1022.21
2019-02-06T02:10:30.014Z,1022.16
2019-02-06T02:11:30.100Z,1022.18
2019-02-06T02:12:30.108Z,1022.13
2019-02-06T02:13:30.413Z,1022.13
2019-02-06T02:14:30.141Z,1022.09
2019-02-06T02:15:30.221Z,1022.12
2019-02-06T02:16:30.259Z,1022.07
2019-02-06T02:17:30.279Z,1022.04
2019-02-06T02:18:30.309Z,1022.03
2019-02-06T02:19:30.339Z,1022.03
2019-02-06T02:20:30.613Z,1021.99
2019-02-06T02:21:30.396Z,1022.06
2019-02-06T02:22:30.392Z,1022.04
2019-02-06T02:23:30.453Z,1022.03
2019-02-06T02:24:30.489Z,1021.98
2019-02-06T02:26:30.556Z,1021.96
2019-02-06T02:27:30.826Z,1021.93
2019-02-06T02:28:30.570Z,1021.91
2019-02-06T02:29:30.589Z,1021.92
2019-02-06T02:30:30.671Z,1021.88
2019-02-06T02:31:30.739Z,1021.94
2019-02-06T02:32:30.672Z,1021.95
2019-02-06T02:33:31.007Z,1021.93
2019-02-06T02:34:30.741Z,1021.92
2019-02-06T02:36:30.912Z,1021.90
2019-02-06T02:37:30.883Z,1021.87
2019-02-06T02:38:30.895Z,1021.79
2019-02-06T02:39:31.248Z,1021.77
2019-02-06T02:40:30.961Z,1021.76
2019-02-06T02:41:30.991Z,1021.70
2019-02-06T02:42:31.124Z,1021.69
2019-02-06T02:43:31.004Z,1021.65
2019-02-06T02:44:31.081Z,1021.64
2019-02-06T02:45:31.362Z,1021.64
2019-02-06T02:46:31.096Z,1021.63
2019-02-06T02:47:31.123Z,1021.57
2019-02-06T02:48:31.156Z,1021.56
2019-02-06T02:49:31.335Z,1021.54
2019-02-06T02:50:31.212Z,1021.50
2019-02-06T02:51:31.287Z,1021.53
2019-02-06T02:52:31.578Z,1021.50
2019-02-06T02:53:31.378Z,1021.50
2019-02-06T02:54:31.336Z,1021.49
2019-02-06T02:55:31.362Z,1021.51
2019-02-06T02:56:31.405Z,1021.48
2019-02-06T02:57:31.466Z,1021.48
2019-02-06T02:58:31.502Z,1021.51
2019-02-06T02:59:31.794Z,1021.46
2019-02-06T03:00:31.567Z,1021.50
2019-02-06T03:01:31.599Z,1021.44
2019-02-06T03:02:31.571Z,1021.42
2019-02-06T03:03:31.653Z,1021.43
2019-02-06T03:04:31.636Z,1021.44
2019-02-06T03:06:31.744Z,1021.41
2019-02-06T03:07:32.023Z,1021.46
2019-02-06T03:08:31.803Z,1021.42
2019-02-06T03:09:31.823Z,1021.39
2019-02-06T03:10:31.813Z,1021.40
2019-02-06T03:11:31.840Z,1021.40
2019-02-06T03:12:31.865Z,1021.37
2019-02-06T03:13:31.944Z,1021.35
2019-02-06T03:14:32.230Z,1021.33
2019-02-06T03:15:32.005Z,1021.32
2019-02-06T03:16:31.989Z,1021.33
2019-02-06T03:17:32.015Z,1021.28
2019-02-06T03:18:32.117Z,1021.27
2019-02-06T03:19:32.078Z,1021.25
2019-02-06T03:20:32.159Z,1021.22
2019-02-06T03:21:32.448Z,1021.29
2019-02-06T03:22:33.006Z,1021.24
2019-02-06T03:23:32.253Z,1021.16
2019-02-06T03:24:32.224Z,1021.11
2019-02-06T03:26:32.333Z,1021.09
2019-02-06T03:27:32.362Z,1021.06
2019-02-06T03:28:32.647Z,1021.06
2019-02-06T03:29:32.372Z,1021.06
2019-02-06T03:31:32.481Z,1021.07
2019-02-06T03:32:32.470Z,1021.03
2019-02-06T03:34:32.574Z,1021.01
2019-02-06T03:35:32.898Z,1020.98
2019-02-06T03:36:40.712Z,1021.04
2019-02-06T03:37:32.613Z,1021.00
2019-02-06T03:38:32.694Z,1020.95
2019-02-06T03:39:32.721Z,1020.97
2019-02-06T03:40:32.746Z,1020.95
2019-02-06T03:41:32.782Z,1020.90
2019-02-06T03:42:33.071Z,1020.85
2019-02-06T03:43:32.789Z,1020.85
2019-02-06T03:44:33.525Z,1020.86
2019-02-06T03:45:32.903Z,1020.83
2019-02-06T03:46:32.885Z,1020.86
2019-02-06T03:47:32.918Z,1020.86
2019-02-06T03:48:32.987Z,1020.87
2019-02-06T03:50:33.296Z,1020.84
2019-02-06T03:51:33.030Z,1020.82
2019-02-06T03:52:33.060Z,1020.82
2019-02-06T03:53:33.135Z,1020.78
2019-02-06T03:55:33.200Z,1020.85
2019-02-06T03:56:33.188Z,1020.84
2019-02-06T03:57:33.514Z,1020.80
2019-02-06T03:58:33.314Z,1020.80
2019-02-06T03:59:33.332Z,1020.80
2019-02-06T04:00:33.344Z,1020.83
2019-02-06T04:01:33.386Z,1020.79
2019-02-06T04:02:33.357Z,1020.86
2019-02-06T04:03:33.382Z,1020.85
2019-02-06T04:05:33.805Z,1020.84
2019-02-06T04:07:33.554Z,1020.81
2019-02-06T04:08:33.538Z,1020.82
2019-02-06T04:09:33.582Z,1020.83
2019-02-06T04:10:33.643Z,1020.85
2019-02-06T04:12:33.703Z,1020.84
2019-02-06T04:13:33.985Z,1020.83
2019-02-06T04:14:33.721Z,1020.82
2019-02-06T04:15:33.750Z,1020.82
2019-02-06T04:16:33.823Z,1020.77
2019-02-06T04:17:33.804Z,1020.76
2019-02-06T04:18:33.887Z,1020.76
2019-02-06T04:19:34.160Z,1020.78
2019-02-06T04:20:33.904Z,1020.74
2019-02-06T04:21:33.929Z,1020.73
2019-02-06T04:22:33.959Z,1020.74
2019-02-06T04:23:34.129Z,1020.73
2019-02-06T04:24:34.012Z,1020.73
2019-02-06T04:25:34.092Z,1020.74
2019-02-06T04:26:34.369Z,1020.69
2019-02-06T04:27:34.100Z,1020.70
2019-02-06T04:28:34.190Z,1020.69
2019-02-06T04:29:34.160Z,1020.71
2019-02-06T04:31:34.234Z,1020.70
2019-02-06T04:32:34.254Z,1020.70
2019-02-06T04:34:34.612Z,1020.73
2019-02-06T04:35:34.367Z,1020.75
2019-02-06T04:36:34.426Z,1020.74
2019-02-06T04:37:34.395Z,1020.71
2019-02-06T04:38:34.426Z,1020.73
2019-02-06T04:41:37.928Z,1020.75
2019-02-06T04:42:37.949Z,1020.70
2019-02-06T04:43:37.986Z,1020.70
2019-02-06T04:45:38.106Z,1020.73
2019-02-06T04:46:38.129Z,1020.72
2019-02-06T04:47:38.103Z,1020.69
2019-02-06T04:48:38.127Z,1020.68
2019-02-06T04:49:38.168Z,1020.72
2019-02-06T04:50:38.191Z,1020.69
2019-02-06T04:51:38.284Z,1020.63
2019-02-06T04:52:38.253Z,1020.62
2019-02-06T04:53:38.276Z,1020.58
2019-02-06T04:54:38.367Z,1020.59
2019-02-06T04:55:38.388Z,1020.56
2019-02-06T04:57:38.395Z,1020.51
2019-02-06T04:58:38.483Z,1020.46
2019-02-06T04:59:38.459Z,1020.46
2019-02-06T05:02:38.602Z,1020.44
2019-02-06T05:03:38.577Z,1020.45
2019-02-06T05:04:38.652Z,1020.46
2019-02-06T05:05:38.720Z,1020.44
2019-02-06T05:06:38.719Z,1020.40
2019-02-06T05:07:38.697Z,1020.36
2019-02-06T05:08:38.773Z,1020.36
2019-02-06T05:09:38.837Z,1020.33
2019-02-06T05:10:38.790Z,1020.28
2019-02-06T05:11:38.865Z,1020.27
2019-02-06T05:12:38.900Z,1020.25
2019-02-06T05:13:38.927Z,1020.26
2019-02-06T05:14:38.955Z,1020.25
2019-02-06T05:15:38.934Z,1020.26
2019-02-06T05:16:39.010Z,1020.26
2019-02-06T05:17:39.044Z,1020.27
2019-02-06T05:18:39.077Z,1020.25
2019-02-06T05:19:39.055Z,1020.25
2019-02-06T05:20:39.087Z,1020.25
2019-02-06T05:21:39.111Z,1020.25
2019-02-06T05:23:39.227Z,1020.20
2019-02-06T05:24:39.211Z,1020.20
2019-02-06T05:25:39.232Z,1020.19
2019-02-06T05:26:39.386Z,1020.19
2019-02-06T05:27:39.348Z,1020.18
2019-02-06T05:28:39.376Z,1020.16
2019-02-06T05:30:39.383Z,1020.20
2019-02-06T05:31:39.411Z,1020.15
2019-02-06T05:32:42.816Z,1020.16
2019-02-06T05:33:39.466Z,1020.20
2019-02-06T05:34:39.565Z,1020.14
2019-02-06T05:35:39.535Z,1020.15
2019-02-06T05:37:39.637Z,1020.11
2019-02-06T05:38:39.670Z,1020.10
2019-02-06T05:39:39.703Z,1020.13
2019-02-06T05:41:39.710Z,1020.11
2019-02-06T05:42:39.733Z,1020.14
2019-02-06T05:43:39.833Z,1020.14
2019-02-06T05:44:39.802Z,1020.15
2019-02-06T05:45:39.825Z,1020.14
2019-02-06T05:46:39.906Z,1020.12
2019-02-06T05:47:39.886Z,1020.12
2019-02-06T05:48:39.961Z,1020.10
2019-02-06T05:49:39.939Z,1020.13
2019-02-06T05:50:40.025Z,1020.12
2019-02-06T05:51:40.022Z,1020.10
2019-02-06T05:52:40.034Z,1020.13
2019-02-06T05:53:40.113Z,1020.11
2019-02-06T05:54:40.153Z,1020.08
2019-02-06T05:55:40.127Z,1020.15
2019-02-06T05:56:40.163Z,1020.10
2019-02-06T05:57:40.183Z,1020.10
2019-02-06T05:58:40.269Z,1020.06
2019-02-06T05:59:40.294Z,1020.11
2019-02-06T06:00:40.322Z,1020.13
2019-02-06T06:01:40.302Z,1020.11
2019-02-06T06:02:40.333Z,1020.12
2019-02-06T06:03:40.465Z,1020.13
2019-02-06T06:04:40.439Z,1020.13
2019-02-06T06:05:40.478Z,1020.16
2019-02-06T06:06:40.583Z,1020.14
2019-02-06T06:07:45.331Z,1020.18
2019-02-06T06:09:40.532Z,1020.21
2019-02-06T06:10:40.620Z,1020.20
2019-02-06T06:11:40.643Z,1020.13
2019-02-06T06:12:40.626Z,1020.14
2019-02-06T06:13:40.654Z,1020.12
2019-02-06T06:14:40.681Z,1020.13
2019-02-06T06:15:40.766Z,1020.16
2019-02-06T06:16:40.751Z,1020.14
2019-02-06T06:17:40.772Z,1020.09
2019-02-06T06:18:40.862Z,1020.07
2019-02-06T06:19:40.885Z,1020.07
2019-02-06T06:20:40.871Z,1020.04
2019-02-06T06:21:40.940Z,1020.00
2019-02-06T06:22:40.925Z,1020.01
2019-02-06T06:23:41.007Z,1019.97
2019-02-06T06:24:40.982Z,1019.98
2019-02-06T06:25:41.010Z,1019.91
2019-02-06T06:26:41.220Z,1019.93
2019-02-06T06:27:41.074Z,1019.91
2019-02-06T06:28:41.178Z,1019.90
2019-02-06T06:30:41.218Z,1019.90
2019-02-06T06:31:41.287Z,1019.90
2019-02-06T06:32:41.269Z,1019.91
2019-02-06T06:33:41.302Z,1019.91
2019-02-06T06:34:41.332Z,1019.84
2019-02-06T06:35:41.313Z,1019.85
2019-02-06T06:36:41.342Z,1019.83
2019-02-06T06:37:41.789Z,1019.83
2019-02-06T06:38:41.455Z,1019.85
2019-02-06T06:39:41.424Z,1019.88
2019-02-06T06:40:41.469Z,1019.85
2019-02-06T06:41:41.535Z,1019.85
2019-02-06T06:42:41.568Z,1019.84
2019-02-06T06:43:41.546Z,1019.79
2019-02-06T06:44:41.577Z,1019.73
2019-02-06T06:45:41.656Z,1019.70
2019-02-06T06:46:41.682Z,1019.74
2019-02-06T06:47:41.662Z,1019.71
2019-02-06T06:48:41.694Z,1019.72
2019-02-06T06:49:41.727Z,1019.67
2019-02-06T06:50:41.802Z,1019.73
2019-02-06T06:51:41.832Z,1019.67
2019-02-06T06:52:41.810Z,1019.71
2019-02-06T06:53:41.839Z,1019.69
2019-02-06T06:54:41.890Z,1019.71
2019-02-06T06:55:41.903Z,1019.71
2019-02-06T06:56:41.986Z,1019.68
2019-02-06T06:57:41.962Z,1019.65
2019-02-06T06:58:42.038Z,1019.65
2019-02-06T06:59:42.025Z,1019.65
2019-02-06T07:00:42.058Z,1019.69
2019-02-06T07:01:42.133Z,1019.66
2019-02-06T07:02:42.164Z,1019.67
2019-02-06T07:03:42.189Z,1019.70
2019-02-06T07:04:42.177Z,1019.70
2019-02-06T07:05:42.200Z,1019.66
2019-02-06T07:06:42.277Z,1019.65
2019-02-06T07:07:42.254Z,1019.70
2019-02-06T07:08:42.341Z,1019.69
2019-02-06T07:09:42.315Z,1019.70
2019-02-06T07:10:42.357Z,1019.69
2019-02-06T07:11:42.433Z,1019.66
2019-02-06T07:12:42.411Z,1019.63
2019-02-06T07:13:42.438Z,1019.68
2019-02-06T07:14:42.518Z,1019.66
2019-02-06T07:15:42.513Z,1019.63
2019-02-06T07:16:42.592Z,1019.60
2019-02-06T07:17:42.608Z,1019.67
2019-02-06T07:18:42.632Z,1019.62
2019-02-06T07:19:42.667Z,1019.64
2019-02-06T07:20:42.640Z,1019.63
2019-02-06T07:21:42.690Z,1019.65
2019-02-06T07:22:42.756Z,1019.66
2019-02-06T07:23:42.778Z,1019.64
2019-02-06T07:24:42.757Z,1019.70
2019-02-06T07:25:42.844Z,1019.70
2019-02-06T07:26:42.874Z,1019.64
2019-02-06T07:27:42.899Z,1019.62
2019-02-06T07:28:42.934Z,1019.60
2019-02-06T07:29:42.912Z,1019.63
2019-02-06T07:30:42.998Z,1019.63
2019-02-06T07:31:42.976Z,1019.62
2019-02-06T07:32:42.997Z,1019.63
2019-02-06T07:33:43.082Z,1019.62
2019-02-06T07:34:43.110Z,1019.63
2019-02-06T07:35:43.141Z,1019.58
2019-02-06T07:36:43.120Z,1019.62
2019-02-06T07:37:43.150Z,1019.60
2019-02-06T07:38:43.175Z,1019.63
2019-02-06T07:39:43.259Z,1019.60
2019-02-06T07:40:43.238Z,1019.63
2019-02-06T07:41:43.271Z,1019.57
2019-02-06T07:42:43.369Z,1019.57
2019-02-06T07:43:43.375Z,1019.63
2019-02-06T07:44:43.359Z,1019.61
2019-02-06T07:45:43.436Z,1019.64
2019-02-06T07:46:43.418Z,1019.63
2019-02-06T07:47:43.491Z,1019.60
2019-02-06T07:48:43.521Z,1019.62
2019-02-06T07:49:43.552Z,1019.65
2019-02-06T07:50:43.538Z,1019.58
2019-02-06T07:51:43.616Z,1019.59
2019-02-06T07:52:43.596Z,1019.54
2019-02-06T07:53:43.621Z,1019.58
2019-02-06T07:54:43.653Z,1019.59
2019-02-06T07:55:43.681Z,1019.57
2019-02-06T07:56:43.758Z,1019.61
2019-02-06T07:57:43.742Z,1019.60
2019-02-06T07:58:43.818Z,1019.59
2019-02-06T07:59:43.799Z,1019.60
2019-02-06T08:00:43.833Z,1019.60
2019-02-06T08:01:43.919Z,1019.62
2019-02-06T08:02:43.889Z,1019.60
2019-02-06T08:03:43.975Z,1019.62
2019-02-06T08:04:43.949Z,1019.65
2019-02-06T08:05:43.977Z,1019.66
2019-02-06T08:06:44.062Z,1019.62
2019-02-06T08:07:44.042Z,1019.65
2019-02-06T08:08:44.122Z,1019.62
2019-02-06T08:09:44.099Z,1019.64
2019-02-06T08:10:44.241Z,1019.67
2019-02-06T08:11:44.162Z,1019.66
2019-02-06T08:12:44.250Z,1019.61
2019-02-06T08:13:44.272Z,1019.60
2019-02-06T08:14:44.249Z,1019.60
2019-02-06T08:15:44.276Z,1019.62
2019-02-06T08:16:44.355Z,1019.65
2019-02-06T08:17:44.389Z,1019.63
2019-02-06T08:18:44.418Z,1019.64
2019-02-06T08:19:44.394Z,1019.59
2019-02-06T08:20:44.483Z,1019.62
2019-02-06T08:21:44.504Z,1019.62
2019-02-06T08:22:44.542Z,1019.63
2019-02-06T08:23:44.517Z,1019.62
2019-02-06T08:24:44.553Z,1019.61
2019-02-06T08:25:44.623Z,1019.62
2019-02-06T08:26:44.656Z,1019.61
2019-02-06T08:27:44.638Z,1019.60
2019-02-06T08:28:44.663Z,1019.60
2019-02-06T08:29:44.694Z,1019.59
2019-02-06T08:30:44.778Z,1019.61
2019-02-06T08:31:44.804Z,1019.59
2019-02-06T08:32:44.788Z,1019.57
2019-02-06T08:33:44.814Z,1019.57
2019-02-06T08:34:44.900Z,1019.57
2019-02-06T08:35:44.872Z,1019.59
2019-02-06T08:36:44.958Z,1019.60
2019-02-06T08:37:44.932Z,1019.59
2019-02-06T08:38:47.892Z,1019.60
2019-02-06T08:39:45.056Z,1019.56
2019-02-06T08:40:45.032Z,1019.58
2019-02-06T08:41:45.059Z,1019.59
2019-02-06T08:42:45.135Z,1019.58
2019-02-06T08:43:45.164Z,1019.52
2019-02-06T08:44:45.190Z,1019.53
2019-02-06T08:45:45.174Z,1019.56
2019-02-06T08:46:45.203Z,1019.53
2019-02-06T08:47:45.242Z,1019.57
2019-02-06T08:48:45.266Z,1019.52
2019-02-06T08:49:45.347Z,1019.58
2019-02-06T08:50:45.371Z,1019.58
2019-02-06T08:51:45.405Z,1019.58
2019-02-06T08:52:45.395Z,1019.60
2019-02-06T08:53:45.465Z,1019.59
2019-02-06T08:54:45.497Z,1019.63
2019-02-06T08:55:45.508Z,1019.62
2019-02-06T08:56:45.503Z,1019.64
2019-02-06T08:57:45.583Z,1019.66
2019-02-06T08:58:45.621Z,1019.71
2019-02-06T08:59:45.652Z,1019.72
2019-02-06T09:00:45.624Z,1019.68
2019-02-06T09:01:45.701Z,1019.69
2019-02-06T09:02:45.687Z,1019.70
2019-02-06T09:03:45.717Z,1019.67
2019-02-06T09:04:55.503Z,1019.66
2019-02-06T09:05:45.823Z,1019.69
2019-02-06T09:06:45.857Z,1019.67
2019-02-06T09:07:45.834Z,1019.69
2019-02-06T09:08:45.861Z,1019.73
2019-02-06T09:09:45.899Z,1019.70
2019-02-06T09:10:46.014Z,1019.71
2019-02-06T09:11:46.073Z,1019.71
2019-02-06T09:12:46.045Z,1019.72
2019-02-06T09:13:46.074Z,1019.72
2019-02-06T09:14:46.174Z,1019.73
2019-02-06T09:15:46.146Z,1019.71
2019-02-06T09:16:46.109Z,1019.71
2019-02-06T09:17:46.186Z,1019.73
2019-02-06T09:18:46.214Z,1019.74
2019-02-06T09:19:46.194Z,1019.71
2019-02-06T09:20:46.292Z,1019.74
2019-02-06T09:21:46.302Z,1019.76
2019-02-06T09:22:46.284Z,1019.72
2019-02-06T09:23:46.411Z,1019.75
2019-02-06T09:24:46.347Z,1019.77
2019-02-06T09:25:46.422Z,1019.81
2019-02-06T09:26:46.452Z,1019.80
2019-02-06T09:27:46.429Z,1019.82
2019-02-06T09:29:46.549Z,1019.84
2019-02-06T09:30:46.572Z,1019.84
2019-02-06T09:31:46.575Z,1019.84
2019-02-06T09:32:46.582Z,1019.84
2019-02-06T09:33:46.634Z,1019.86
2019-02-06T09:34:46.704Z,1019.88
2019-02-06T09:35:46.776Z,1019.90
2019-02-06T09:36:46.823Z,1019.92
2019-02-06T09:37:46.741Z,1019.89
2019-02-06T09:38:46.820Z,1019.89
2019-02-06T09:39:46.796Z,1019.89
2019-02-06T09:40:49.361Z,1019.94
2019-02-06T09:41:46.855Z,1019.94
2019-02-06T09:42:46.891Z,1019.95
2019-02-06T09:43:46.914Z,1019.98
2019-02-06T09:44:46.944Z,1019.97
2019-02-06T09:45:47.033Z,1019.95
2019-02-06T09:46:47.060Z,1019.95
2019-02-06T09:47:47.051Z,1019.91
2019-02-06T09:48:47.070Z,1019.95
2019-02-06T09:49:49.733Z,1019.92
2019-02-06T09:50:47.180Z,1019.91
2019-02-06T09:51:47.208Z,1019.91
2019-02-06T09:52:47.241Z,1019.86
2019-02-06T09:53:47.273Z,1019.86
2019-02-06T09:54:47.254Z,1019.91
2019-02-06T09:55:47.281Z,1019.89
2019-02-06T09:56:50.474Z,1019.89
2019-02-06T09:57:47.395Z,1019.85
2019-02-06T09:58:47.418Z,1019.85
2019-02-06T09:59:47.459Z,1019.84
2019-02-06T10:00:47.432Z,1019.85
2019-02-06T10:01:47.523Z,1019.84
2019-02-06T10:02:47.596Z,1019.85
2019-02-06T10:03:47.525Z,1019.87
2019-02-06T10:04:47.620Z,1019.82
2019-02-06T10:05:47.585Z,1019.85
2019-02-06T10:06:47.666Z,1019.86
2019-02-06T10:07:47.639Z,1019.81
2019-02-06T10:08:47.728Z,1019.86
2019-02-06T10:09:47.758Z,1019.88
2019-02-06T10:10:47.811Z,1019.86
2019-02-06T10:11:47.802Z,1019.87
2019-02-06T10:12:47.796Z,1019.86
2019-02-06T10:13:47.825Z,1019.84
2019-02-06T10:14:47.911Z,1019.88
2019-02-06T10:15:47.935Z,1019.87
2019-02-06T10:16:47.915Z,1019.90
2019-02-06T10:17:47.961Z,1019.90
2019-02-06T10:18:48.029Z,1019.91
2019-02-06T10:19:48.063Z,1019.97
2019-02-06T10:20:48.042Z,1019.93
2019-02-06T10:21:50.368Z,1019.92
2019-02-06T10:22:48.239Z,1019.93
2019-02-06T10:23:48.152Z,1019.91
2019-02-06T10:24:48.209Z,1019.87
2019-02-06T10:25:48.193Z,1019.88
2019-02-06T10:26:48.276Z,1019.88
2019-02-06T10:27:48.312Z,1019.83
2019-02-06T10:28:48.360Z,1019.86
2019-02-06T10:29:48.318Z,1019.81
2019-02-06T10:30:48.399Z,1019.85
2019-02-06T10:31:48.374Z,1019.86
2019-02-06T10:32:48.460Z,1019.87
2019-02-06T10:33:48.484Z,1019.88
2019-02-06T10:34:48.470Z,1019.84
2019-02-06T10:35:48.509Z,1019.81
2019-02-06T10:36:48.531Z,1019.85
2019-02-06T10:37:48.612Z,1019.83
2019-02-06T10:38:48.588Z,1019.86
2019-02-06T10:39:48.673Z,1019.86
2019-02-06T10:40:48.653Z,1019.88
2019-02-06T10:41:48.690Z,1019.85
2019-02-06T10:42:48.761Z,1019.83
2019-02-06T10:43:48.796Z,1019.86
2019-02-06T10:44:48.773Z,1019.85
2019-02-06T10:45:48.804Z,1019.83
2019-02-06T10:46:48.839Z,1019.79
2019-02-06T10:47:48.871Z,1019.81
2019-02-06T10:48:48.961Z,1019.83
2019-02-06T10:49:48.926Z,1019.81
2019-02-06T10:50:49.058Z,1019.78
2019-02-06T10:51:49.049Z,1019.76
2019-02-06T10:52:49.073Z,1019.76
2019-02-06T10:53:49.134Z,1019.73
2019-02-06T10:54:49.129Z,1019.73
2019-02-06T10:55:49.109Z,1019.74
2019-02-06T10:56:49.145Z,1019.73
2019-02-06T10:57:49.169Z,1019.72
2019-02-06T10:58:49.256Z,1019.73
2019-02-06T10:59:49.285Z,1019.69
2019-02-06T11:00:49.263Z,1019.62
2019-02-06T11:01:49.301Z,1019.64
2019-02-06T11:02:49.327Z,1019.61
2019-02-06T11:03:49.416Z,1019.53
2019-02-06T11:04:49.466Z,1019.55
2019-02-06T11:05:49.482Z,1019.55
2019-02-06T11:06:49.506Z,1019.51
2019-02-06T11:07:49.535Z,1019.51
2019-02-06T11:08:49.572Z,1019.52
2019-02-06T11:09:49.541Z,1019.51
2019-02-06T11:10:49.575Z,1019.44
2019-02-06T11:11:49.611Z,1019.41
2019-02-06T11:12:49.632Z,1019.42
2019-02-06T11:13:50.005Z,1019.37
2019-02-06T11:14:49.745Z,1019.32
2019-02-06T11:15:49.733Z,1019.28
2019-02-06T11:16:49.815Z,1019.30
2019-02-06T11:17:49.850Z,1019.31
2019-02-06T11:18:49.869Z,1019.28
2019-02-06T11:19:49.903Z,1019.25
2019-02-06T11:20:49.938Z,1019.26
2019-02-06T11:21:49.914Z,1019.25
2019-02-06T11:22:50.011Z,1019.24
2019-02-06T11:23:49.975Z,1019.22
2019-02-06T11:24:50.015Z,1019.23
2019-02-06T11:25:50.089Z,1019.16
2019-02-06T11:26:50.132Z,1019.19
2019-02-06T11:27:50.169Z,1019.16
2019-02-06T11:28:50.131Z,1019.10
2019-02-06T11:29:50.163Z,1019.16
2019-02-06T11:30:50.245Z,1019.14
2019-02-06T11:31:50.275Z,1019.11
2019-02-06T11:32:50.258Z,1019.11
2019-02-06T11:33:50.285Z,1019.09
2019-02-06T11:34:50.315Z,1019.09
2019-02-06T11:35:50.349Z,1019.09
2019-02-06T11:36:50.429Z,1019.01
2019-02-06T11:37:50.407Z,1018.99
2019-02-06T11:38:50.490Z,1019.00
2019-02-06T11:39:57.590Z,1018.95
2019-02-06T11:40:50.502Z,1018.95
2019-02-06T11:41:50.587Z,1018.90
2019-02-06T11:42:50.610Z,1018.87
2019-02-06T11:43:50.594Z,1018.86
2019-02-06T11:44:50.626Z,1018.83
2019-02-06T11:45:50.655Z,1018.81
2019-02-06T11:46:50.797Z,1018.80
2019-02-06T11:47:50.805Z,1018.79
2019-02-06T11:48:50.753Z,1018.77
2019-02-06T11:49:50.833Z,1018.75
2019-02-06T11:50:50.874Z,1018.75
2019-02-06T11:51:50.840Z,1018.74
2019-02-06T11:52:50.921Z,1018.71
2019-02-06T11:53:50.917Z,1018.67
2019-02-06T11:54:50.991Z,1018.69
2019-02-06T11:55:51.089Z,1018.68
2019-02-06T11:56:51.001Z,1018.62
2019-02-06T11:57:51.061Z,1018.64
2019-02-06T11:58:51.182Z,1018.60
2019-02-06T11:59:53.061Z,1018.62
2019-02-06T12:00:51.364Z,1018.62
2019-02-06T12:01:51.154Z,1018.65
2019-02-06T12:02:51.294Z,1018.61
2019-02-06T12:03:51.425Z,1018.62
2019-02-06T12:04:51.253Z,1018.60
2019-02-06T12:05:51.328Z,1018.56
2019-02-06T12:06:51.308Z,1018.47
2019-02-06T12:07:51.342Z,1018.50
2019-02-06T12:08:51.368Z,1018.48
2019-02-06T12:09:51.449Z,1018.45
2019-02-06T12:10:51.489Z,1018.43
2019-02-06T12:11:51.516Z,1018.44
2019-02-06T12:12:51.491Z,1018.44
2019-02-06T12:13:51.525Z,1018.41
2019-02-06T12:14:51.612Z,1018.43
2019-02-06T12:15:51.586Z,1018.37
2019-02-06T12:16:51.667Z,1018.41
2019-02-06T12:17:51.648Z,1018.41
2019-02-06T12:18:51.730Z,1018.40
2019-02-06T12:19:51.804Z,1018.34
2019-02-06T12:20:51.801Z,1018.33
2019-02-06T12:21:51.843Z,1018.34
2019-02-06T12:22:51.811Z,1018.28
2019-02-06T12:23:51.845Z,1018.29
2019-02-06T12:24:51.866Z,1018.26
2019-02-06T12:25:51.956Z,1018.24
2019-02-06T12:26:51.986Z,1018.24
2019-02-06T12:27:52.066Z,1018.24
2019-02-06T12:28:51.999Z,1018.26
2019-02-06T12:29:52.029Z,1018.18
2019-02-06T12:30:52.055Z,1018.20
2019-02-06T12:31:52.142Z,1018.21
2019-02-06T12:32:52.687Z,1018.20
2019-02-06T12:33:52.153Z,1018.10
2019-02-06T12:34:52.181Z,1018.14
2019-02-06T12:35:52.212Z,1018.14
2019-02-06T12:36:52.310Z,1018.08
2019-02-06T12:37:52.334Z,1018.11